sensor_id;sensor_type;location;lat;lon;timestamp;temperature;humidity
11035;DHT22;5571;48.110;-1.706;2023-07-30T00:01:32;16.20;99.90
11035;DHT22;5571;48.110;-1.706;2023-07-30T00:03:58;16.20;99.90
11035;DHT22;5571;48.110;-1.706;2023-07-30T00:06:24;16.20;99.90
11035;DHT22;5571;48.110;-1.706;2023-07-30T00:08:49;16.20;99.90
11035;DHT22;5571;48.110;-1.706;2023-07-30T00:11:15;16.10;99.90
11035;DHT22;5571;48.110;-1.706;2023-07-30T00:13:41;16.00;99.90
11035;DHT22;5571;48.110;-1.706;2023-07-30T00:16:06;15.90;99.90
11035;DHT22;5571;48.110;-1.706;2023-07-30T00:18:32;16.00;99.90
11035;DHT22;5571;48.110;-1.706;2023-07-30T00:20:57;15.90;99.90
11035;DHT22;5571;48.110;-1.706;2023-07-30T00:23:23;15.90;99.90
11035;DHT22;5571;48.110;-1.706;2023-07-30T00:25:49;15.90;99.90
11035;DHT22;5571;48.110;-1.706;2023-07-30T00:28:14;15.90;99.90
11035;DHT22;5571;48.110;-1.706;2023-07-30T00:30:40;15.90;99.90
11035;DHT22;5571;48.110;-1.706;2023-07-30T00:33:05;15.90;99.90
11035;DHT22;5571;48.110;-1.706;2023-07-30T00:35:31;15.80;99.90
11035;DHT22;5571;48.110;-1.706;2023-07-30T00:37:56;15.80;99.90
11035;DHT22;5571;48.110;-1.706;2023-07-30T00:40:22;15.70;99.90
11035;DHT22;5571;48.110;-1.706;2023-07-30T00:42:48;15.80;99.90
11035;DHT22;5571;48.110;-1.706;2023-07-30T00:45:13;15.70;99.90
11035;DHT22;5571;48.110;-1.706;2023-07-30T00:47:39;15.70;99.90
11035;DHT22;5571;48.110;-1.706;2023-07-30T00:50:07;15.80;99.90
11035;DHT22;5571;48.110;-1.706;2023-07-30T00:52:33;15.80;99.90
11035;DHT22;5571;48.110;-1.706;2023-07-30T00:55:01;15.80;99.90
11035;DHT22;5571;48.110;-1.706;2023-07-30T00:57:27;15.80;99.90
11035;DHT22;5571;48.110;-1.706;2023-07-30T00:59:54;15.70;99.90
11035;DHT22;5571;48.110;-1.706;2023-07-30T01:02:21;15.70;99.90
11035;DHT22;5571;48.110;-1.706;2023-07-30T01:04:46;15.70;99.90
11035;DHT22;5571;48.110;-1.706;2023-07-30T01:07:12;15.70;99.90
11035;DHT22;5571;48.110;-1.706;2023-07-30T01:09:37;15.60;99.90
11035;DHT22;5571;48.110;-1.706;2023-07-30T01:12:04;15.60;99.90
11035;DHT22;5571;48.110;-1.706;2023-07-30T01:14:31;15.60;99.90
11035;DHT22;5571;48.110;-1.706;2023-07-30T01:16:58;15.50;99.90
11035;DHT22;5571;48.110;-1.706;2023-07-30T01:19:24;15.60;99.90
11035;DHT22;5571;48.110;-1.706;2023-07-30T01:21:49;15.60;99.90
11035;DHT22;5571;48.110;-1.706;2023-07-30T01:24:15;15.60;99.90
11035;DHT22;5571;48.110;-1.706;2023-07-30T01:26:46;15.60;99.90
11035;DHT22;5571;48.110;-1.706;2023-07-30T01:29:28;15.60;99.90
11035;DHT22;5571;48.110;-1.706;2023-07-30T01:32:02;15.60;99.90
11035;DHT22;5571;48.110;-1.706;2023-07-30T01:34:30;15.60;99.90
11035;DHT22;5571;48.110;-1.706;2023-07-30T01:37:00;15.60;99.90
11035;DHT22;5571;48.110;-1.706;2023-07-30T01:39:27;15.70;99.90
11035;DHT22;5571;48.110;-1.706;2023-07-30T01:41:54;15.60;99.90
11035;DHT22;5571;48.110;-1.706;2023-07-30T01:44:20;15.60;99.90
11035;DHT22;5571;48.110;-1.706;2023-07-30T01:46:45;15.60;99.90
11035;DHT22;5571;48.110;-1.706;2023-07-30T01:49:11;15.60;99.90
11035;DHT22;5571;48.110;-1.706;2023-07-30T01:51:36;15.60;99.90
11035;DHT22;5571;48.110;-1.706;2023-07-30T01:54:02;15.60;99.90
11035;DHT22;5571;48.110;-1.706;2023-07-30T01:56:28;15.60;99.90
11035;DHT22;5571;48.110;-1.706;2023-07-30T01:58:53;15.60;99.90
11035;DHT22;5571;48.110;-1.706;2023-07-30T02:01:19;15.60;99.90
11035;DHT22;5571;48.110;-1.706;2023-07-30T02:03:45;15.60;99.90
11035;DHT22;5571;48.110;-1.706;2023-07-30T02:06:11;15.60;99.90
11035;DHT22;5571;48.110;-1.706;2023-07-30T02:08:37;15.60;99.90
11035;DHT22;5571;48.110;-1.706;2023-07-30T02:11:03;15.70;99.90
11035;DHT22;5571;48.110;-1.706;2023-07-30T02:13:28;15.70;99.90
11035;DHT22;5571;48.110;-1.706;2023-07-30T02:15:54;15.60;99.90
11035;DHT22;5571;48.110;-1.706;2023-07-30T02:18:20;15.60;99.90
11035;DHT22;5571;48.110;-1.706;2023-07-30T02:20:45;15.60;99.90
11035;DHT22;5571;48.110;-1.706;2023-07-30T02:23:11;15.70;99.90
11035;DHT22;5571;48.110;-1.706;2023-07-30T02:25:38;15.70;99.90
11035;DHT22;5571;48.110;-1.706;2023-07-30T02:28:03;15.70;99.90
11035;DHT22;5571;48.110;-1.706;2023-07-30T02:30:29;15.60;99.90
11035;DHT22;5571;48.110;-1.706;2023-07-30T02:32:55;15.70;99.90
11035;DHT22;5571;48.110;-1.706;2023-07-30T02:35:20;15.80;99.90
11035;DHT22;5571;48.110;-1.706;2023-07-30T02:37:46;15.70;99.90
11035;DHT22;5571;48.110;-1.706;2023-07-30T02:40:12;15.70;99.90
11035;DHT22;5571;48.110;-1.706;2023-07-30T02:42:37;15.70;99.90
11035;DHT22;5571;48.110;-1.706;2023-07-30T02:45:04;15.70;99.90
11035;DHT22;5571;48.110;-1.706;2023-07-30T02:47:30;15.80;99.90
11035;DHT22;5571;48.110;-1.706;2023-07-30T02:49:56;15.80;99.90
11035;DHT22;5571;48.110;-1.706;2023-07-30T02:52:21;15.80;99.90
11035;DHT22;5571;48.110;-1.706;2023-07-30T02:54:47;15.80;99.90
11035;DHT22;5571;48.110;-1.706;2023-07-30T02:57:13;15.70;99.90
11035;DHT22;5571;48.110;-1.706;2023-07-30T02:59:38;15.80;99.90
11035;DHT22;5571;48.110;-1.706;2023-07-30T03:02:06;15.80;99.90
11035;DHT22;5571;48.110;-1.706;2023-07-30T03:04:31;15.80;99.90
11035;DHT22;5571;48.110;-1.706;2023-07-30T03:06:57;15.80;99.90
11035;DHT22;5571;48.110;-1.706;2023-07-30T03:09:23;15.80;99.90
11035;DHT22;5571;48.110;-1.706;2023-07-30T03:11:51;15.80;99.90
11035;DHT22;5571;48.110;-1.706;2023-07-30T03:14:17;15.90;99.90
11035;DHT22;5571;48.110;-1.706;2023-07-30T03:16:46;16.00;99.90
11035;DHT22;5571;48.110;-1.706;2023-07-30T03:19:12;15.90;99.90
11035;DHT22;5571;48.110;-1.706;2023-07-30T03:21:38;16.00;99.90
11035;DHT22;5571;48.110;-1.706;2023-07-30T03:24:03;16.00;99.90
11035;DHT22;5571;48.110;-1.706;2023-07-30T03:26:29;16.00;99.90
11035;DHT22;5571;48.110;-1.706;2023-07-30T03:28:55;16.00;99.90
11035;DHT22;5571;48.110;-1.706;2023-07-30T03:31:20;16.00;99.90
11035;DHT22;5571;48.110;-1.706;2023-07-30T03:33:46;15.90;99.90
11035;DHT22;5571;48.110;-1.706;2023-07-30T03:36:13;15.90;99.90
11035;DHT22;5571;48.110;-1.706;2023-07-30T03:38:39;15.80;99.90
11035;DHT22;5571;48.110;-1.706;2023-07-30T03:41:05;15.70;99.90
11035;DHT22;5571;48.110;-1.706;2023-07-30T03:43:32;15.70;99.90
11035;DHT22;5571;48.110;-1.706;2023-07-30T03:45:57;15.70;99.90
11035;DHT22;5571;48.110;-1.706;2023-07-30T03:48:23;15.70;99.90
11035;DHT22;5571;48.110;-1.706;2023-07-30T03:50:49;15.70;99.90
11035;DHT22;5571;48.110;-1.706;2023-07-30T03:53:14;15.60;99.90
11035;DHT22;5571;48.110;-1.706;2023-07-30T03:55:40;15.60;99.90
11035;DHT22;5571;48.110;-1.706;2023-07-30T03:58:06;15.50;99.90
11035;DHT22;5571;48.110;-1.706;2023-07-30T04:00:32;15.50;99.90
11035;DHT22;5571;48.110;-1.706;2023-07-30T04:02:58;15.60;99.90
11035;DHT22;5571;48.110;-1.706;2023-07-30T04:05:23;15.60;99.90
11035;DHT22;5571;48.110;-1.706;2023-07-30T04:07:49;15.50;99.90
11035;DHT22;5571;48.110;-1.706;2023-07-30T04:10:15;15.50;99.90
11035;DHT22;5571;48.110;-1.706;2023-07-30T04:12:40;15.50;99.90
11035;DHT22;5571;48.110;-1.706;2023-07-30T04:15:06;15.50;99.90
11035;DHT22;5571;48.110;-1.706;2023-07-30T04:17:32;15.50;99.90
11035;DHT22;5571;48.110;-1.706;2023-07-30T04:19:57;15.50;99.90
11035;DHT22;5571;48.110;-1.706;2023-07-30T04:22:23;15.50;99.90
11035;DHT22;5571;48.110;-1.706;2023-07-30T04:24:49;15.60;99.90
11035;DHT22;5571;48.110;-1.706;2023-07-30T04:27:14;15.60;99.90
11035;DHT22;5571;48.110;-1.706;2023-07-30T04:29:40;15.60;99.90
11035;DHT22;5571;48.110;-1.706;2023-07-30T04:32:06;15.50;99.90
11035;DHT22;5571;48.110;-1.706;2023-07-30T04:34:32;15.50;99.90
11035;DHT22;5571;48.110;-1.706;2023-07-30T04:36:57;15.60;99.90
11035;DHT22;5571;48.110;-1.706;2023-07-30T04:39:23;15.60;99.90
11035;DHT22;5571;48.110;-1.706;2023-07-30T04:41:48;15.70;99.90
11035;DHT22;5571;48.110;-1.706;2023-07-30T04:44:14;15.60;99.90
11035;DHT22;5571;48.110;-1.706;2023-07-30T04:46:40;15.60;99.90
11035;DHT22;5571;48.110;-1.706;2023-07-30T04:49:05;15.70;99.90
11035;DHT22;5571;48.110;-1.706;2023-07-30T04:51:31;15.70;99.90
11035;DHT22;5571;48.110;-1.706;2023-07-30T04:53:57;15.60;99.90
11035;DHT22;5571;48.110;-1.706;2023-07-30T04:56:22;15.60;99.90
11035;DHT22;5571;48.110;-1.706;2023-07-30T04:58:48;15.60;99.90
11035;DHT22;5571;48.110;-1.706;2023-07-30T05:01:13;15.70;99.90
11035;DHT22;5571;48.110;-1.706;2023-07-30T05:03:39;15.60;99.90
11035;DHT22;5571;48.110;-1.706;2023-07-30T05:06:05;15.60;99.90
11035;DHT22;5571;48.110;-1.706;2023-07-30T05:08:30;15.60;99.90
11035;DHT22;5571;48.110;-1.706;2023-07-30T05:10:56;15.70;99.90
11035;DHT22;5571;48.110;-1.706;2023-07-30T05:13:22;15.70;99.90
11035;DHT22;5571;48.110;-1.706;2023-07-30T05:15:47;15.70;99.90
11035;DHT22;5571;48.110;-1.706;2023-07-30T05:18:13;15.70;99.90
11035;DHT22;5571;48.110;-1.706;2023-07-30T05:20:39;15.70;99.90
11035;DHT22;5571;48.110;-1.706;2023-07-30T05:23:04;15.70;99.90
11035;DHT22;5571;48.110;-1.706;2023-07-30T05:25:32;15.80;99.90
11035;DHT22;5571;48.110;-1.706;2023-07-30T05:27:58;15.80;99.90
11035;DHT22;5571;48.110;-1.706;2023-07-30T05:30:23;15.90;99.90
11035;DHT22;5571;48.110;-1.706;2023-07-30T05:32:49;15.90;99.90
11035;DHT22;5571;48.110;-1.706;2023-07-30T05:35:15;15.90;99.90
11035;DHT22;5571;48.110;-1.706;2023-07-30T05:37:41;15.90;99.90
11035;DHT22;5571;48.110;-1.706;2023-07-30T05:40:07;15.90;99.90
11035;DHT22;5571;48.110;-1.706;2023-07-30T05:42:32;16.00;99.90
11035;DHT22;5571;48.110;-1.706;2023-07-30T05:44:58;16.00;99.90
11035;DHT22;5571;48.110;-1.706;2023-07-30T05:47:24;16.00;99.90
11035;DHT22;5571;48.110;-1.706;2023-07-30T05:49:49;16.10;99.90
11035;DHT22;5571;48.110;-1.706;2023-07-30T05:52:15;16.10;99.90
11035;DHT22;5571;48.110;-1.706;2023-07-30T05:54:40;16.10;99.90
11035;DHT22;5571;48.110;-1.706;2023-07-30T05:57:06;16.10;99.90
11035;DHT22;5571;48.110;-1.706;2023-07-30T05:59:31;16.20;99.90
11035;DHT22;5571;48.110;-1.706;2023-07-30T06:02:02;16.20;99.90
11035;DHT22;5571;48.110;-1.706;2023-07-30T06:04:28;16.20;99.90
11035;DHT22;5571;48.110;-1.706;2023-07-30T06:06:54;16.20;99.90
11035;DHT22;5571;48.110;-1.706;2023-07-30T06:09:19;16.20;99.90
11035;DHT22;5571;48.110;-1.706;2023-07-30T06:11:45;16.20;99.90
11035;DHT22;5571;48.110;-1.706;2023-07-30T06:14:10;16.20;99.90
11035;DHT22;5571;48.110;-1.706;2023-07-30T06:16:36;16.20;99.90
11035;DHT22;5571;48.110;-1.706;2023-07-30T06:19:02;16.30;99.90
11035;DHT22;5571;48.110;-1.706;2023-07-30T06:21:27;16.30;99.90
11035;DHT22;5571;48.110;-1.706;2023-07-30T06:23:53;16.30;99.90
11035;DHT22;5571;48.110;-1.706;2023-07-30T06:26:19;16.40;99.90
11035;DHT22;5571;48.110;-1.706;2023-07-30T06:28:44;16.40;99.90
11035;DHT22;5571;48.110;-1.706;2023-07-30T06:31:10;16.50;99.90
11035;DHT22;5571;48.110;-1.706;2023-07-30T06:33:35;16.50;99.90
11035;DHT22;5571;48.110;-1.706;2023-07-30T06:36:03;16.60;99.90
11035;DHT22;5571;48.110;-1.706;2023-07-30T06:38:29;16.70;99.90
11035;DHT22;5571;48.110;-1.706;2023-07-30T06:40:55;16.70;99.90
11035;DHT22;5571;48.110;-1.706;2023-07-30T06:43:23;16.70;99.90
11035;DHT22;5571;48.110;-1.706;2023-07-30T06:45:49;16.70;99.90
11035;DHT22;5571;48.110;-1.706;2023-07-30T06:48:14;16.80;99.90
11035;DHT22;5571;48.110;-1.706;2023-07-30T06:50:41;16.90;99.90
11035;DHT22;5571;48.110;-1.706;2023-07-30T06:53:07;16.90;99.90
11035;DHT22;5571;48.110;-1.706;2023-07-30T06:55:33;16.90;99.90
11035;DHT22;5571;48.110;-1.706;2023-07-30T06:57:59;17.00;99.90
11035;DHT22;5571;48.110;-1.706;2023-07-30T07:00:25;17.00;99.90
11035;DHT22;5571;48.110;-1.706;2023-07-30T07:02:50;17.10;99.90
11035;DHT22;5571;48.110;-1.706;2023-07-30T07:05:16;17.20;99.90
11035;DHT22;5571;48.110;-1.706;2023-07-30T07:07:42;17.30;99.90
11035;DHT22;5571;48.110;-1.706;2023-07-30T07:10:08;17.20;99.90
11035;DHT22;5571;48.110;-1.706;2023-07-30T07:12:36;17.20;99.90
11035;DHT22;5571;48.110;-1.706;2023-07-30T07:15:03;17.20;99.90
11035;DHT22;5571;48.110;-1.706;2023-07-30T07:17:29;17.20;99.90
11035;DHT22;5571;48.110;-1.706;2023-07-30T07:19:56;17.30;99.90
11035;DHT22;5571;48.110;-1.706;2023-07-30T07:22:22;17.50;99.90
11035;DHT22;5571;48.110;-1.706;2023-07-30T07:24:48;17.60;99.90
11035;DHT22;5571;48.110;-1.706;2023-07-30T07:27:14;17.60;99.90
11035;DHT22;5571;48.110;-1.706;2023-07-30T07:29:40;17.60;99.90
11035;DHT22;5571;48.110;-1.706;2023-07-30T07:32:06;17.60;99.90
11035;DHT22;5571;48.110;-1.706;2023-07-30T07:34:32;17.60;99.90
11035;DHT22;5571;48.110;-1.706;2023-07-30T07:36:58;17.70;99.90
11035;DHT22;5571;48.110;-1.706;2023-07-30T07:39:23;17.80;99.90
11035;DHT22;5571;48.110;-1.706;2023-07-30T07:41:49;17.90;99.90
11035;DHT22;5571;48.110;-1.706;2023-07-30T07:44:15;17.90;99.90
11035;DHT22;5571;48.110;-1.706;2023-07-30T07:46:40;18.00;99.90
11035;DHT22;5571;48.110;-1.706;2023-07-30T07:49:06;18.10;99.90
11035;DHT22;5571;48.110;-1.706;2023-07-30T07:51:34;18.10;99.90
11035;DHT22;5571;48.110;-1.706;2023-07-30T07:53:59;18.20;99.90
11035;DHT22;5571;48.110;-1.706;2023-07-30T07:56:25;18.20;99.90
11035;DHT22;5571;48.110;-1.706;2023-07-30T07:58:50;18.30;99.90
11035;DHT22;5571;48.110;-1.706;2023-07-30T08:01:16;18.40;99.90
11035;DHT22;5571;48.110;-1.706;2023-07-30T08:03:41;18.50;99.90
11035;DHT22;5571;48.110;-1.706;2023-07-30T08:06:07;18.40;99.90
11035;DHT22;5571;48.110;-1.706;2023-07-30T08:08:33;18.40;99.90
11035;DHT22;5571;48.110;-1.706;2023-07-30T08:11:02;18.40;99.90
11035;DHT22;5571;48.110;-1.706;2023-07-30T08:13:29;18.50;99.90
11035;DHT22;5571;48.110;-1.706;2023-07-30T08:15:55;18.70;99.90
11035;DHT22;5571;48.110;-1.706;2023-07-30T08:18:20;18.60;99.90
11035;DHT22;5571;48.110;-1.706;2023-07-30T08:20:46;18.60;99.90
11035;DHT22;5571;48.110;-1.706;2023-07-30T08:23:11;18.70;99.90
11035;DHT22;5571;48.110;-1.706;2023-07-30T08:25:37;18.70;99.90
11035;DHT22;5571;48.110;-1.706;2023-07-30T08:28:03;18.80;99.90
11035;DHT22;5571;48.110;-1.706;2023-07-30T08:30:29;18.90;99.90
11035;DHT22;5571;48.110;-1.706;2023-07-30T08:32:55;19.20;99.90
11035;DHT22;5571;48.110;-1.706;2023-07-30T08:35:20;19.20;99.90
11035;DHT22;5571;48.110;-1.706;2023-07-30T08:37:46;19.30;99.90
11035;DHT22;5571;48.110;-1.706;2023-07-30T08:40:11;19.30;99.90
11035;DHT22;5571;48.110;-1.706;2023-07-30T08:42:37;19.20;99.90
11035;DHT22;5571;48.110;-1.706;2023-07-30T08:45:06;19.20;99.90
11035;DHT22;5571;48.110;-1.706;2023-07-30T08:47:34;19.30;99.90
11035;DHT22;5571;48.110;-1.706;2023-07-30T08:50:00;19.20;99.90
11035;DHT22;5571;48.110;-1.706;2023-07-30T08:52:27;19.30;99.90
11035;DHT22;5571;48.110;-1.706;2023-07-30T08:54:54;19.30;99.90
11035;DHT22;5571;48.110;-1.706;2023-07-30T08:57:21;19.30;99.90
11035;DHT22;5571;48.110;-1.706;2023-07-30T08:59:56;19.10;99.90
11035;DHT22;5571;48.110;-1.706;2023-07-30T09:02:30;19.20;99.90
11035;DHT22;5571;48.110;-1.706;2023-07-30T09:04:58;19.20;99.90
11035;DHT22;5571;48.110;-1.706;2023-07-30T09:07:25;19.30;99.90
11035;DHT22;5571;48.110;-1.706;2023-07-30T09:09:51;19.30;99.90
11035;DHT22;5571;48.110;-1.706;2023-07-30T09:12:17;19.40;99.90
11035;DHT22;5571;48.110;-1.706;2023-07-30T09:14:43;19.40;99.90
11035;DHT22;5571;48.110;-1.706;2023-07-30T09:17:18;19.30;99.90
11035;DHT22;5571;48.110;-1.706;2023-07-30T09:19:44;19.30;99.90
11035;DHT22;5571;48.110;-1.706;2023-07-30T09:22:12;19.50;99.90
11035;DHT22;5571;48.110;-1.706;2023-07-30T09:24:43;19.50;99.90
11035;DHT22;5571;48.110;-1.706;2023-07-30T09:27:08;19.50;99.90
11035;DHT22;5571;48.110;-1.706;2023-07-30T09:29:34;19.60;99.90
11035;DHT22;5571;48.110;-1.706;2023-07-30T09:32:00;19.70;99.90
11035;DHT22;5571;48.110;-1.706;2023-07-30T09:34:25;19.70;99.90
11035;DHT22;5571;48.110;-1.706;2023-07-30T09:36:55;19.80;99.90
11035;DHT22;5571;48.110;-1.706;2023-07-30T09:39:21;19.80;99.90
11035;DHT22;5571;48.110;-1.706;2023-07-30T09:41:48;19.90;99.90
11035;DHT22;5571;48.110;-1.706;2023-07-30T09:44:20;19.90;99.90
11035;DHT22;5571;48.110;-1.706;2023-07-30T09:46:48;19.70;99.90
11035;DHT22;5571;48.110;-1.706;2023-07-30T09:49:15;19.70;99.90
11035;DHT22;5571;48.110;-1.706;2023-07-30T09:51:41;19.80;99.90
11035;DHT22;5571;48.110;-1.706;2023-07-30T09:54:07;19.80;99.90
11035;DHT22;5571;48.110;-1.706;2023-07-30T09:56:38;19.90;99.90
11035;DHT22;5571;48.110;-1.706;2023-07-30T09:59:04;20.00;99.90
11035;DHT22;5571;48.110;-1.706;2023-07-30T10:01:30;19.90;99.90
11035;DHT22;5571;48.110;-1.706;2023-07-30T10:03:57;20.00;99.90
11035;DHT22;5571;48.110;-1.706;2023-07-30T10:06:29;20.00;99.90
11035;DHT22;5571;48.110;-1.706;2023-07-30T10:08:58;20.00;99.90
11035;DHT22;5571;48.110;-1.706;2023-07-30T10:11:25;20.00;99.90
11035;DHT22;5571;48.110;-1.706;2023-07-30T10:13:52;20.10;99.90
11035;DHT22;5571;48.110;-1.706;2023-07-30T10:16:18;20.20;99.90
11035;DHT22;5571;48.110;-1.706;2023-07-30T10:18:44;20.20;99.90
11035;DHT22;5571;48.110;-1.706;2023-07-30T10:21:14;20.20;99.90
11035;DHT22;5571;48.110;-1.706;2023-07-30T10:23:57;20.40;99.90
11035;DHT22;5571;48.110;-1.706;2023-07-30T10:26:35;20.40;99.90
11035;DHT22;5571;48.110;-1.706;2023-07-30T10:29:17;20.60;99.90
11035;DHT22;5571;48.110;-1.706;2023-07-30T10:31:57;20.80;99.90
11035;DHT22;5571;48.110;-1.706;2023-07-30T10:34:26;20.70;99.90
11035;DHT22;5571;48.110;-1.706;2023-07-30T10:36:55;20.80;99.90
11035;DHT22;5571;48.110;-1.706;2023-07-30T10:39:22;20.90;99.90
11035;DHT22;5571;48.110;-1.706;2023-07-30T10:41:55;20.90;99.90
11035;DHT22;5571;48.110;-1.706;2023-07-30T10:44:30;20.80;99.90
11035;DHT22;5571;48.110;-1.706;2023-07-30T10:46:57;20.70;99.90
11035;DHT22;5571;48.110;-1.706;2023-07-30T10:49:23;20.60;99.90
11035;DHT22;5571;48.110;-1.706;2023-07-30T10:51:51;20.60;99.90
11035;DHT22;5571;48.110;-1.706;2023-07-30T10:54:18;20.50;99.90
11035;DHT22;5571;48.110;-1.706;2023-07-30T10:56:44;20.70;99.90
11035;DHT22;5571;48.110;-1.706;2023-07-30T10:59:11;21.10;99.90
11035;DHT22;5571;48.110;-1.706;2023-07-30T11:01:42;21.30;99.90
11035;DHT22;5571;48.110;-1.706;2023-07-30T11:04:09;21.30;99.90
11035;DHT22;5571;48.110;-1.706;2023-07-30T11:06:35;21.40;99.90
11035;DHT22;5571;48.110;-1.706;2023-07-30T11:09:01;21.40;99.90
11035;DHT22;5571;48.110;-1.706;2023-07-30T11:11:26;21.50;99.90
11035;DHT22;5571;48.110;-1.706;2023-07-30T11:13:52;21.30;99.90
11035;DHT22;5571;48.110;-1.706;2023-07-30T11:16:19;21.40;99.90
11035;DHT22;5571;48.110;-1.706;2023-07-30T11:18:45;21.40;99.90
11035;DHT22;5571;48.110;-1.706;2023-07-30T11:21:15;21.70;99.90
11035;DHT22;5571;48.110;-1.706;2023-07-30T11:23:42;22.00;99.90
11035;DHT22;5571;48.110;-1.706;2023-07-30T11:26:12;22.00;99.90
11035;DHT22;5571;48.110;-1.706;2023-07-30T11:28:39;22.00;99.90
11035;DHT22;5571;48.110;-1.706;2023-07-30T11:31:10;22.10;99.90
11035;DHT22;5571;48.110;-1.706;2023-07-30T11:33:38;22.10;99.90
11035;DHT22;5571;48.110;-1.706;2023-07-30T11:36:06;22.00;99.90
11035;DHT22;5571;48.110;-1.706;2023-07-30T11:38:32;21.90;99.90
11035;DHT22;5571;48.110;-1.706;2023-07-30T11:40:59;21.90;99.90
11035;DHT22;5571;48.110;-1.706;2023-07-30T11:43:25;21.80;99.90
11035;DHT22;5571;48.110;-1.706;2023-07-30T11:46:13;21.70;99.90
11035;DHT22;5571;48.110;-1.706;2023-07-30T11:48:41;21.80;99.90
11035;DHT22;5571;48.110;-1.706;2023-07-30T11:51:17;21.90;99.90
11035;DHT22;5571;48.110;-1.706;2023-07-30T11:53:50;21.90;99.90
11035;DHT22;5571;48.110;-1.706;2023-07-30T11:56:23;21.90;99.90
11035;DHT22;5571;48.110;-1.706;2023-07-30T11:58:55;21.70;99.90
11035;DHT22;5571;48.110;-1.706;2023-07-30T12:01:23;21.70;99.90
11035;DHT22;5571;48.110;-1.706;2023-07-30T12:03:49;21.40;99.90
11035;DHT22;5571;48.110;-1.706;2023-07-30T12:06:14;21.20;99.90
11035;DHT22;5571;48.110;-1.706;2023-07-30T12:08:41;21.20;99.90
11035;DHT22;5571;48.110;-1.706;2023-07-30T12:11:08;21.10;99.90
11035;DHT22;5571;48.110;-1.706;2023-07-30T12:13:41;21.20;99.90
11035;DHT22;5571;48.110;-1.706;2023-07-30T12:16:07;21.10;99.90
11035;DHT22;5571;48.110;-1.706;2023-07-30T12:18:33;21.20;99.90
11035;DHT22;5571;48.110;-1.706;2023-07-30T12:20:58;21.20;99.90
11035;DHT22;5571;48.110;-1.706;2023-07-30T12:23:24;21.10;99.90
11035;DHT22;5571;48.110;-1.706;2023-07-30T12:25:50;21.10;99.90
11035;DHT22;5571;48.110;-1.706;2023-07-30T12:28:16;21.00;99.90
11035;DHT22;5571;48.110;-1.706;2023-07-30T12:30:42;20.90;99.90
11035;DHT22;5571;48.110;-1.706;2023-07-30T12:33:07;20.90;99.90
11035;DHT22;5571;48.110;-1.706;2023-07-30T12:35:33;20.90;99.90
11035;DHT22;5571;48.110;-1.706;2023-07-30T12:37:59;20.80;99.90
11035;DHT22;5571;48.110;-1.706;2023-07-30T12:40:25;20.80;99.90
11035;DHT22;5571;48.110;-1.706;2023-07-30T12:42:51;20.80;99.90
11035;DHT22;5571;48.110;-1.706;2023-07-30T12:45:18;20.80;99.90
11035;DHT22;5571;48.110;-1.706;2023-07-30T12:47:45;20.70;99.90
11035;DHT22;5571;48.110;-1.706;2023-07-30T12:50:10;20.70;99.90
11035;DHT22;5571;48.110;-1.706;2023-07-30T12:52:36;20.60;99.90
11035;DHT22;5571;48.110;-1.706;2023-07-30T12:55:02;20.60;99.90
11035;DHT22;5571;48.110;-1.706;2023-07-30T12:57:30;20.40;99.90
11035;DHT22;5571;48.110;-1.706;2023-07-30T12:59:56;20.20;99.90
11035;DHT22;5571;48.110;-1.706;2023-07-30T13:02:21;20.20;99.90
11035;DHT22;5571;48.110;-1.706;2023-07-30T13:04:47;20.20;99.90
11035;DHT22;5571;48.110;-1.706;2023-07-30T13:07:13;20.20;99.90
11035;DHT22;5571;48.110;-1.706;2023-07-30T13:09:39;20.20;99.90
11035;DHT22;5571;48.110;-1.706;2023-07-30T13:12:05;20.40;99.90
11035;DHT22;5571;48.110;-1.706;2023-07-30T13:14:30;20.50;99.90
11035;DHT22;5571;48.110;-1.706;2023-07-30T13:16:56;20.70;99.90
11035;DHT22;5571;48.110;-1.706;2023-07-30T13:19:22;21.00;99.90
11035;DHT22;5571;48.110;-1.706;2023-07-30T13:21:47;21.10;99.90
11035;DHT22;5571;48.110;-1.706;2023-07-30T13:24:13;21.30;99.90
11035;DHT22;5571;48.110;-1.706;2023-07-30T13:26:39;21.30;99.90
11035;DHT22;5571;48.110;-1.706;2023-07-30T13:29:04;21.40;99.90
11035;DHT22;5571;48.110;-1.706;2023-07-30T13:31:30;21.50;99.90
11035;DHT22;5571;48.110;-1.706;2023-07-30T13:33:56;21.70;99.90
11035;DHT22;5571;48.110;-1.706;2023-07-30T13:36:21;21.90;99.90
11035;DHT22;5571;48.110;-1.706;2023-07-30T13:38:47;21.90;99.90
11035;DHT22;5571;48.110;-1.706;2023-07-30T13:41:13;21.90;99.90
11035;DHT22;5571;48.110;-1.706;2023-07-30T13:43:38;22.00;99.90
11035;DHT22;5571;48.110;-1.706;2023-07-30T13:46:04;22.50;99.90
11035;DHT22;5571;48.110;-1.706;2023-07-30T13:48:30;23.00;99.90
11035;DHT22;5571;48.110;-1.706;2023-07-30T13:50:55;23.00;99.90
11035;DHT22;5571;48.110;-1.706;2023-07-30T13:53:21;23.20;99.90
11035;DHT22;5571;48.110;-1.706;2023-07-30T13:55:47;22.90;99.90
11035;DHT22;5571;48.110;-1.706;2023-07-30T13:58:12;22.90;99.90
11035;DHT22;5571;48.110;-1.706;2023-07-30T14:00:40;22.80;99.90
11035;DHT22;5571;48.110;-1.706;2023-07-30T14:03:05;22.70;99.90
11035;DHT22;5571;48.110;-1.706;2023-07-30T14:05:31;22.30;99.90
11035;DHT22;5571;48.110;-1.706;2023-07-30T14:07:57;22.00;99.90
11035;DHT22;5571;48.110;-1.706;2023-07-30T14:10:23;22.00;99.90
11035;DHT22;5571;48.110;-1.706;2023-07-30T14:12:49;22.00;99.90
11035;DHT22;5571;48.110;-1.706;2023-07-30T14:15:15;22.10;99.90
11035;DHT22;5571;48.110;-1.706;2023-07-30T14:17:41;22.00;99.90
11035;DHT22;5571;48.110;-1.706;2023-07-30T14:20:07;21.90;99.90
11035;DHT22;5571;48.110;-1.706;2023-07-30T14:22:33;21.70;99.90
11035;DHT22;5571;48.110;-1.706;2023-07-30T14:24:59;21.70;99.90
11035;DHT22;5571;48.110;-1.706;2023-07-30T14:27:25;21.60;99.90
11035;DHT22;5571;48.110;-1.706;2023-07-30T14:29:50;21.70;99.90
11035;DHT22;5571;48.110;-1.706;2023-07-30T14:32:18;21.60;99.90
11035;DHT22;5571;48.110;-1.706;2023-07-30T14:34:44;21.60;99.90
11035;DHT22;5571;48.110;-1.706;2023-07-30T14:37:10;21.70;99.90
11035;DHT22;5571;48.110;-1.706;2023-07-30T14:39:35;21.80;99.90
11035;DHT22;5571;48.110;-1.706;2023-07-30T14:42:01;21.90;99.90
11035;DHT22;5571;48.110;-1.706;2023-07-30T14:44:26;22.10;99.90
11035;DHT22;5571;48.110;-1.706;2023-07-30T14:46:52;22.20;99.90
11035;DHT22;5571;48.110;-1.706;2023-07-30T14:49:18;22.00;99.90
11035;DHT22;5571;48.110;-1.706;2023-07-30T14:51:43;21.90;99.90
11035;DHT22;5571;48.110;-1.706;2023-07-30T14:54:09;21.90;99.90
11035;DHT22;5571;48.110;-1.706;2023-07-30T14:56:35;21.70;99.90
11035;DHT22;5571;48.110;-1.706;2023-07-30T14:59:01;21.80;99.90
11035;DHT22;5571;48.110;-1.706;2023-07-30T15:01:30;21.90;99.90
11035;DHT22;5571;48.110;-1.706;2023-07-30T15:03:56;22.10;99.90
11035;DHT22;5571;48.110;-1.706;2023-07-30T15:06:24;22.10;99.90
11035;DHT22;5571;48.110;-1.706;2023-07-30T15:08:52;22.20;99.90
11035;DHT22;5571;48.110;-1.706;2023-07-30T15:11:18;22.30;99.90
11035;DHT22;5571;48.110;-1.706;2023-07-30T15:13:44;22.40;99.90
11035;DHT22;5571;48.110;-1.706;2023-07-30T15:16:09;22.40;99.90
11035;DHT22;5571;48.110;-1.706;2023-07-30T15:18:35;22.50;99.90
11035;DHT22;5571;48.110;-1.706;2023-07-30T15:21:00;22.50;99.90
11035;DHT22;5571;48.110;-1.706;2023-07-30T15:23:26;22.50;99.90
11035;DHT22;5571;48.110;-1.706;2023-07-30T15:25:52;22.30;99.90